Highworth, United Kingdom
Current Conditions -  °F | °C
As of 6:53 AM on Tuesday 21 Oct 2014 (Local Time) from EGVA Reporting Station
Light Rain Light Rain  
Wind Chill: 55°   Ceiling: 1800
Heat Index: 55°   Visibility: 6mi
Dew Point: 52°   Wind: 23mph
Humidity: 88%   Direction: 250°WSW
Pressure: 29.52"   Gusts: 31mph
Location:  51.63°N, 1.71°W
Report Text: EGVA 210553Z AUTO 25020G27KT 9999 -RA BKN018 OVC023 13/11 A2952 RMK AO2
Loading
Personal Weather Stations






























Interactive Weather Map
Tropical Storm Tracking
New forecast layout! Learn more

10-Day Weather Forecast

Advertisements
Track Severe Weather on mobile